Tibbee, Mississippi
Current Conditions -  °F | °C
As of 2:55 AM on Wednesday 22 Oct 2014 (Local Time) from KSTF Reporting Station
Clear Clear  
Wind Chill: 50°   Ceiling: Unl
Heat Index: 50°   Visibility: 10mi
Dew Point: 46°   Wind: 3mph
Humidity: 87%   Direction: 360°N
Pressure: 30.09"   Gusts: NA
Location:  33.6681°N, 88.7618°W
Report Text: KSTF 220755Z AUTO 36003KT 10SM CLR 10/08 A3009 RMK AO2
Loading
Personal Weather Stations






























Interactive Weather Map
Tropical Storm Tracking
New forecast layout! Learn more

10-Day Weather Forecast

Advertisements
Track Severe Weather on mobile